XAA4302 KTUL-KTEB
Flight info
| Callsign | XAA4302 |
|---|---|
| Flight time | 2h 12m |
| Altitude | 41000 |
| Route | EOS SGF ENL DQN EWC PSB LVZ LVZ5 |
| Aircraft | CL60/M-SBDE1E2E3FGHIJ1J4J5J7M3RWXYZ/LB1V1D1 |
Departure
| Time | 2026-04-29 02:45 |
|---|---|
| Airport | Tulsa International Airport (KTUL) |
Arrival
| Time | 2026-04-29 04:58 |
|---|---|
| Airport | Teterboro Airport (KTEB) |
| Time | Latitude | Longitude | Altitude | Speed | Heading |
|---|---|---|---|---|---|
| 2026-04-29 02:17 | 36.19089 | -95.89720 | 668 ft | 0 kts | 181° |
| 2026-04-29 02:44 | 36.19069 | -95.89724 | 667 ft | 5 kts | 199° |
| 2026-04-29 02:44 | 36.19053 | -95.89777 | 668 ft | 7 kts | 270° |
| 2026-04-29 02:44 | 36.19055 | -95.89845 | 670 ft | 8 kts | 272° |
| 2026-04-29 02:44 | 36.19058 | -95.89930 | 671 ft | 10 kts | 271° |
| 2026-04-29 02:45 | 36.19083 | -95.90017 | 673 ft | 11 kts | 348° |
| 2026-04-29 02:45 | 36.19285 | -95.90005 | 671 ft | 72 kts | 2° |
| 2026-04-29 02:45 | 36.20107 | -95.89954 | 777 ft | 147 kts | 3° |
| 2026-04-29 02:45 | 36.21180 | -95.89899 | 1500 ft | 166 kts | 2° |
| 2026-04-29 02:46 | 36.22408 | -95.89816 | 2372 ft | 187 kts | 2° |
| 2026-04-29 02:46 | 36.23774 | -95.89758 | 3243 ft | 209 kts | 2° |
| 2026-04-29 02:46 | 36.25294 | -95.89687 | 4221 ft | 228 kts | 1° |
| 2026-04-29 02:46 | 36.26880 | -95.89273 | 5234 ft | 250 kts | 21° |
| 2026-04-29 02:47 | 36.28264 | -95.87803 | 6447 ft | 278 kts | 51° |
| 2026-04-29 02:47 | 36.29198 | -95.85611 | 7615 ft | 296 kts | 59° |
| 2026-04-29 02:47 | 36.30110 | -95.83275 | 8786 ft | 308 kts | 58° |
| 2026-04-29 02:47 | 36.31078 | -95.80818 | 9810 ft | 324 kts | 58° |
| 2026-04-29 02:48 | 36.32093 | -95.78244 | 10650 ft | 344 kts | 59° |
| 2026-04-29 02:48 | 36.33192 | -95.75465 | 11318 ft | 368 kts | 60° |
| 2026-04-29 02:48 | 36.34364 | -95.72489 | 12053 ft | 387 kts | 60° |
| 2026-04-29 02:48 | 36.35570 | -95.69424 | 12829 ft | 401 kts | 60° |
| 2026-04-29 02:49 | 36.36818 | -95.66245 | 13724 ft | 409 kts | 61° |
| 2026-04-29 02:49 | 36.38082 | -95.63026 | 14621 ft | 417 kts | 61° |
| 2026-04-29 02:49 | 36.39370 | -95.59745 | 15561 ft | 422 kts | 61° |
| 2026-04-29 02:49 | 36.40683 | -95.56397 | 16464 ft | 428 kts | 61° |
| 2026-04-29 02:50 | 36.42004 | -95.53029 | 17339 ft | 434 kts | 61° |
| 2026-04-29 02:50 | 36.43343 | -95.49612 | 18165 ft | 440 kts | 61° |
| 2026-04-29 02:50 | 36.44691 | -95.46170 | 18935 ft | 447 kts | 61° |
| 2026-04-29 02:50 | 36.46075 | -95.42633 | 19692 ft | 453 kts | 60° |
| 2026-04-29 02:51 | 36.47462 | -95.39087 | 20362 ft | 460 kts | 60° |
| 2026-04-29 02:51 | 36.48885 | -95.35446 | 21027 ft | 467 kts | 60° |
| 2026-04-29 02:51 | 36.50331 | -95.31741 | 21678 ft | 473 kts | 60° |
| 2026-04-29 02:51 | 36.51773 | -95.28045 | 22267 ft | 479 kts | 60° |
| 2026-04-29 02:52 | 36.53255 | -95.24242 | 22886 ft | 484 kts | 60° |
| 2026-04-29 02:52 | 36.54734 | -95.20441 | 23495 ft | 489 kts | 60° |
| 2026-04-29 02:52 | 36.56220 | -95.16616 | 24146 ft | 492 kts | 60° |
| 2026-04-29 02:52 | 36.57721 | -95.12750 | 24748 ft | 497 kts | 60° |
| 2026-04-29 02:53 | 36.59253 | -95.08800 | 25322 ft | 502 kts | 60° |
| 2026-04-29 02:53 | 36.60780 | -95.04857 | 25912 ft | 505 kts | 60° |
| 2026-04-29 02:53 | 36.62306 | -95.00913 | 26482 ft | 509 kts | 59° |
| 2026-04-29 02:53 | 36.63876 | -94.96851 | 27014 ft | 513 kts | 60° |
| 2026-04-29 02:54 | 36.65437 | -94.92806 | 27489 ft | 518 kts | 60° |
| 2026-04-29 02:54 | 36.67007 | -94.88734 | 27907 ft | 523 kts | 60° |
| 2026-04-29 02:54 | 36.68612 | -94.84566 | 28349 ft | 527 kts | 60° |
| 2026-04-29 02:54 | 36.70199 | -94.80437 | 28757 ft | 531 kts | 60° |
| 2026-04-29 02:55 | 36.71823 | -94.76207 | 29186 ft | 534 kts | 60° |
| 2026-04-29 02:55 | 36.73418 | -94.72049 | 29578 ft | 537 kts | 60° |
| 2026-04-29 02:55 | 36.74995 | -94.67928 | 30058 ft | 537 kts | 60° |
| 2026-04-29 02:55 | 36.76600 | -94.63723 | 30555 ft | 536 kts | 60° |
| 2026-04-29 02:56 | 36.78077 | -94.59854 | 31042 ft | 535 kts | 59° |
| 2026-04-29 02:56 | 36.79482 | -94.56177 | 31483 ft | 534 kts | 59° |
| 2026-04-29 02:56 | 36.81067 | -94.52016 | 31958 ft | 533 kts | 59° |
| 2026-04-29 02:56 | 36.82631 | -94.47903 | 32420 ft | 532 kts | 59° |
| 2026-04-29 02:57 | 36.84248 | -94.43701 | 32880 ft | 530 kts | 57° |
| 2026-04-29 02:57 | 36.86064 | -94.39693 | 33285 ft | 526 kts | 52° |
| 2026-04-29 02:57 | 36.87906 | -94.35828 | 33641 ft | 527 kts | 52° |
| 2026-04-29 02:57 | 36.89723 | -94.31994 | 34028 ft | 527 kts | 53° |
| 2026-04-29 02:58 | 36.91470 | -94.28301 | 34377 ft | 527 kts | 53° |
| 2026-04-29 02:58 | 36.93334 | -94.24357 | 34776 ft | 526 kts | 53° |
| 2026-04-29 02:58 | 36.95164 | -94.20477 | 35132 ft | 526 kts | 53° |
| 2026-04-29 02:58 | 36.97032 | -94.16511 | 35507 ft | 525 kts | 53° |
| 2026-04-29 02:59 | 36.98824 | -94.12701 | 35835 ft | 526 kts | 53° |
| 2026-04-29 02:59 | 37.00689 | -94.08733 | 36162 ft | 526 kts | 53° |
| 2026-04-29 02:59 | 37.02362 | -94.05163 | 36479 ft | 525 kts | 54° |
| 2026-04-29 02:59 | 37.04132 | -94.01378 | 36778 ft | 525 kts | 53° |
| 2026-04-29 03:00 | 37.05950 | -93.97495 | 37049 ft | 525 kts | 53° |
| 2026-04-29 03:00 | 37.07738 | -93.93672 | 37287 ft | 526 kts | 54° |
| 2026-04-29 03:00 | 37.09579 | -93.89730 | 37549 ft | 526 kts | 53° |
| 2026-04-29 03:00 | 37.11281 | -93.86080 | 37823 ft | 525 kts | 54° |
| 2026-04-29 03:01 | 37.13152 | -93.82062 | 38072 ft | 526 kts | 54° |
| 2026-04-29 03:01 | 37.14992 | -93.78108 | 38271 ft | 527 kts | 54° |
| 2026-04-29 03:01 | 37.16840 | -93.74131 | 38497 ft | 527 kts | 54° |
| 2026-04-29 03:01 | 37.18712 | -93.70097 | 38703 ft | 527 kts | 54° |
| 2026-04-29 03:02 | 37.20555 | -93.66120 | 38909 ft | 528 kts | 54° |
| 2026-04-29 03:02 | 37.22401 | -93.62132 | 39127 ft | 528 kts | 54° |
| 2026-04-29 03:02 | 37.24261 | -93.58108 | 39371 ft | 527 kts | 55° |
| 2026-04-29 03:02 | 37.26112 | -93.54098 | 39600 ft | 527 kts | 54° |
| 2026-04-29 03:03 | 37.27952 | -93.50106 | 39820 ft | 526 kts | 54° |
| 2026-04-29 03:03 | 37.29803 | -93.46088 | 39997 ft | 526 kts | 54° |
| 2026-04-29 03:03 | 37.31630 | -93.42117 | 40170 ft | 526 kts | 54° |
| 2026-04-29 03:03 | 37.33463 | -93.38126 | 40368 ft | 526 kts | 54° |
| 2026-04-29 03:04 | 37.35235 | -93.34061 | 40457 ft | 529 kts | 61° |
| 2026-04-29 03:04 | 37.36629 | -93.29738 | 40583 ft | 532 kts | 69° |
| 2026-04-29 03:04 | 37.37829 | -93.25378 | 40683 ft | 532 kts | 69° |
| 2026-04-29 03:04 | 37.39042 | -93.20976 | 40795 ft | 532 kts | 69° |
| 2026-04-29 03:05 | 37.40267 | -93.16527 | 40877 ft | 532 kts | 69° |
| 2026-04-29 03:05 | 37.42676 | -93.07751 | 41003 ft | 534 kts | 69° |
| 2026-04-29 03:06 | 37.45071 | -92.98995 | 41004 ft | 538 kts | 69° |
| 2026-04-29 03:06 | 37.47557 | -92.89873 | 41053 ft | 540 kts | 69° |
| 2026-04-29 03:07 | 37.49996 | -92.80889 | 40997 ft | 543 kts | 69° |
| 2026-04-29 03:07 | 37.52440 | -92.71855 | 41005 ft | 543 kts | 69° |
| 2026-04-29 03:08 | 37.54888 | -92.62772 | 41035 ft | 542 kts | 70° |
| 2026-04-29 03:08 | 37.57304 | -92.53780 | 41009 ft | 543 kts | 70° |
| 2026-04-29 03:09 | 37.59729 | -92.44719 | 41012 ft | 543 kts | 69° |
| 2026-04-29 03:09 | 37.62065 | -92.35960 | 40985 ft | 543 kts | 70° |
| 2026-04-29 03:10 | 37.64424 | -92.27086 | 40997 ft | 542 kts | 70° |
| 2026-04-29 03:10 | 37.66767 | -92.18240 | 40972 ft | 541 kts | 70° |
| 2026-04-29 03:11 | 37.69172 | -92.09132 | 40964 ft | 541 kts | 71° |
| 2026-04-29 03:11 | 37.71546 | -92.00105 | 40963 ft | 542 kts | 71° |
| 2026-04-29 03:12 | 37.73926 | -91.91022 | 40970 ft | 542 kts | 71° |
| 2026-04-29 03:12 | 37.76298 | -91.81941 | 40977 ft | 542 kts | 71° |
| 2026-04-29 03:13 | 37.78632 | -91.72970 | 40983 ft | 541 kts | 71° |
| 2026-04-29 03:13 | 37.80948 | -91.64038 | 40979 ft | 542 kts | 71° |
| 2026-04-29 03:14 | 37.83310 | -91.54896 | 40977 ft | 541 kts | 71° |
| 2026-04-29 03:14 | 37.85651 | -91.45802 | 40975 ft | 543 kts | 71° |
| 2026-04-29 03:15 | 37.87985 | -91.36702 | 40945 ft | 544 kts | 71° |
| 2026-04-29 03:15 | 37.90095 | -91.28446 | 40952 ft | 543 kts | 72° |
| 2026-04-29 03:16 | 37.92530 | -91.18882 | 40929 ft | 543 kts | 72° |
| 2026-04-29 03:16 | 37.94858 | -91.09707 | 40986 ft | 544 kts | 72° |
| 2026-04-29 03:17 | 37.97103 | -91.00825 | 40963 ft | 544 kts | 72° |
| 2026-04-29 03:17 | 37.99291 | -90.92137 | 40937 ft | 545 kts | 72° |
| 2026-04-29 03:18 | 38.01645 | -90.82758 | 40945 ft | 545 kts | 72° |
| 2026-04-29 03:18 | 38.03927 | -90.73628 | 40926 ft | 545 kts | 72° |
| 2026-04-29 03:19 | 38.06170 | -90.64625 | 40933 ft | 546 kts | 73° |
| 2026-04-29 03:19 | 38.08319 | -90.55969 | 40933 ft | 545 kts | 73° |
| 2026-04-29 03:20 | 38.10639 | -90.46584 | 40971 ft | 544 kts | 73° |
| 2026-04-29 03:20 | 38.12891 | -90.37440 | 40972 ft | 543 kts | 74° |
| 2026-04-29 03:21 | 38.15144 | -90.28254 | 40962 ft | 544 kts | 75° |
| 2026-04-29 03:21 | 38.17389 | -90.19070 | 40952 ft | 543 kts | 75° |
| 2026-04-29 03:22 | 38.19645 | -90.09805 | 40941 ft | 544 kts | 75° |
| 2026-04-29 03:22 | 38.21878 | -90.00600 | 40998 ft | 543 kts | 75° |
| 2026-04-29 03:23 | 38.24112 | -89.91354 | 40957 ft | 544 kts | 75° |
| 2026-04-29 03:23 | 38.26325 | -89.82162 | 40932 ft | 544 kts | 75° |
| 2026-04-29 03:24 | 38.28540 | -89.72922 | 40945 ft | 544 kts | 75° |
| 2026-04-29 03:24 | 38.30719 | -89.63799 | 40954 ft | 545 kts | 75° |
| 2026-04-29 03:25 | 38.32902 | -89.54622 | 40945 ft | 545 kts | 75° |
| 2026-04-29 03:25 | 38.35016 | -89.45704 | 40939 ft | 546 kts | 75° |
| 2026-04-29 03:26 | 38.37204 | -89.36445 | 40950 ft | 546 kts | 75° |
| 2026-04-29 03:26 | 38.39376 | -89.27203 | 40935 ft | 546 kts | 76° |
| 2026-04-29 03:27 | 38.41535 | -89.18021 | 40949 ft | 546 kts | 76° |
| 2026-04-29 03:27 | 38.44498 | -89.09017 | 40948 ft | 549 kts | 67° |
| 2026-04-29 03:28 | 38.47725 | -89.00127 | 40958 ft | 549 kts | 66° |
| 2026-04-29 03:28 | 38.50935 | -88.91248 | 40961 ft | 549 kts | 66° |
| 2026-04-29 03:29 | 38.54091 | -88.82486 | 40953 ft | 551 kts | 66° |
| 2026-04-29 03:29 | 38.57304 | -88.73541 | 40937 ft | 553 kts | 66° |
| 2026-04-29 03:30 | 38.60479 | -88.64674 | 40940 ft | 554 kts | 66° |
| 2026-04-29 03:30 | 38.63691 | -88.55673 | 40949 ft | 556 kts | 66° |
| 2026-04-29 03:31 | 38.68530 | -88.42059 | 40957 ft | 558 kts | 67° |
| 2026-04-29 03:31 | 38.71731 | -88.33015 | 40940 ft | 560 kts | 68° |
| 2026-04-29 03:32 | 38.74815 | -88.24274 | 40956 ft | 561 kts | 68° |
| 2026-04-29 03:32 | 38.78040 | -88.15108 | 40957 ft | 562 kts | 68° |
| 2026-04-29 03:33 | 38.81251 | -88.05956 | 40959 ft | 563 kts | 68° |
| 2026-04-29 03:33 | 38.84485 | -87.96707 | 40949 ft | 565 kts | 68° |
| 2026-04-29 03:34 | 38.87557 | -87.87894 | 40951 ft | 566 kts | 68° |
| 2026-04-29 03:34 | 38.90546 | -87.79297 | 40961 ft | 566 kts | 68° |
| 2026-04-29 03:35 | 38.93704 | -87.70176 | 40951 ft | 568 kts | 68° |
| 2026-04-29 03:35 | 38.96804 | -87.61201 | 40955 ft | 568 kts | 68° |
| 2026-04-29 03:36 | 39.00016 | -87.51878 | 40957 ft | 568 kts | 68° |
| 2026-04-29 03:36 | 39.03204 | -87.42592 | 40951 ft | 569 kts | 68° |
| 2026-04-29 03:37 | 39.06302 | -87.33534 | 40945 ft | 569 kts | 68° |
| 2026-04-29 03:37 | 39.09458 | -87.24245 | 40952 ft | 569 kts | 70° |
| 2026-04-29 03:38 | 39.12176 | -87.14786 | 40965 ft | 568 kts | 72° |
| 2026-04-29 03:38 | 39.14863 | -87.05222 | 40948 ft | 568 kts | 73° |
| 2026-04-29 03:39 | 39.17548 | -86.95633 | 40957 ft | 569 kts | 73° |
| 2026-04-29 03:39 | 39.20197 | -86.86142 | 40971 ft | 569 kts | 72° |
| 2026-04-29 03:40 | 39.22873 | -86.76517 | 40968 ft | 570 kts | 72° |
| 2026-04-29 03:40 | 39.25536 | -86.66907 | 40978 ft | 571 kts | 72° |
| 2026-04-29 03:41 | 39.28215 | -86.57205 | 40972 ft | 572 kts | 72° |
| 2026-04-29 03:41 | 39.30892 | -86.47478 | 40957 ft | 573 kts | 72° |
| 2026-04-29 03:42 | 39.33555 | -86.37766 | 40962 ft | 574 kts | 72° |
| 2026-04-29 03:42 | 39.36187 | -86.28130 | 40972 ft | 573 kts | 72° |
| 2026-04-29 03:43 | 39.38824 | -86.18433 | 40976 ft | 574 kts | 72° |
| 2026-04-29 03:43 | 39.41483 | -86.08631 | 40970 ft | 575 kts | 73° |
| 2026-04-29 03:44 | 39.44132 | -85.98823 | 40971 ft | 576 kts | 72° |
| 2026-04-29 03:44 | 39.46759 | -85.89058 | 40970 ft | 576 kts | 72° |
| 2026-04-29 03:45 | 39.49366 | -85.79327 | 40967 ft | 577 kts | 71° |
| 2026-04-29 03:45 | 39.51829 | -85.70100 | 40964 ft | 577 kts | 72° |
| 2026-04-29 03:46 | 39.54542 | -85.59903 | 40966 ft | 577 kts | 71° |
| 2026-04-29 03:46 | 39.57171 | -85.49981 | 40967 ft | 577 kts | 71° |
| 2026-04-29 03:47 | 39.59766 | -85.40147 | 40958 ft | 577 kts | 71° |
| 2026-04-29 03:47 | 39.62359 | -85.30282 | 40960 ft | 575 kts | 72° |
| 2026-04-29 03:48 | 39.64940 | -85.20422 | 40957 ft | 576 kts | 71° |
| 2026-04-29 03:48 | 39.67504 | -85.10590 | 40953 ft | 577 kts | 72° |
| 2026-04-29 03:49 | 39.70078 | -85.00680 | 40971 ft | 578 kts | 72° |
| 2026-04-29 03:49 | 39.72633 | -84.90807 | 40972 ft | 578 kts | 72° |
| 2026-04-29 03:50 | 39.75133 | -84.81100 | 40996 ft | 577 kts | 72° |
| 2026-04-29 03:50 | 39.77683 | -84.71169 | 40974 ft | 577 kts | 72° |
| 2026-04-29 03:51 | 39.80220 | -84.61242 | 40986 ft | 576 kts | 72° |
| 2026-04-29 03:51 | 39.82733 | -84.51366 | 40967 ft | 577 kts | 71° |
| 2026-04-29 03:52 | 39.85263 | -84.41387 | 40987 ft | 577 kts | 71° |
| 2026-04-29 03:52 | 39.87746 | -84.31555 | 40983 ft | 577 kts | 71° |
| 2026-04-29 03:53 | 39.90260 | -84.21557 | 40983 ft | 576 kts | 72° |
| 2026-04-29 03:53 | 39.92745 | -84.11635 | 40980 ft | 575 kts | 72° |
| 2026-04-29 03:54 | 39.95224 | -84.01694 | 40993 ft | 576 kts | 72° |
| 2026-04-29 03:54 | 39.97710 | -83.91683 | 40992 ft | 576 kts | 71° |
| 2026-04-29 03:55 | 40.00168 | -83.81744 | 40987 ft | 577 kts | 72° |
| 2026-04-29 03:55 | 40.02629 | -83.71752 | 40991 ft | 576 kts | 70° |
| 2026-04-29 03:56 | 40.05077 | -83.61768 | 40992 ft | 576 kts | 71° |
| 2026-04-29 03:56 | 40.07507 | -83.51820 | 40998 ft | 575 kts | 70° |
| 2026-04-29 03:57 | 40.09931 | -83.41853 | 41004 ft | 576 kts | 71° |
| 2026-04-29 03:57 | 40.12344 | -83.31889 | 40981 ft | 574 kts | 71° |
| 2026-04-29 03:58 | 40.14624 | -83.22434 | 40978 ft | 573 kts | 71° |
| 2026-04-29 03:58 | 40.16962 | -83.12698 | 40995 ft | 574 kts | 71° |
| 2026-04-29 03:59 | 40.19248 | -83.03140 | 40995 ft | 574 kts | 71° |
| 2026-04-29 03:59 | 40.21598 | -82.93270 | 40993 ft | 573 kts | 71° |
| 2026-04-29 04:00 | 40.23947 | -82.83360 | 40991 ft | 572 kts | 70° |
| 2026-04-29 04:00 | 40.26313 | -82.73347 | 40980 ft | 572 kts | 70° |
| 2026-04-29 04:01 | 40.28646 | -82.63428 | 40970 ft | 572 kts | 70° |
| 2026-04-29 04:01 | 40.30985 | -82.53439 | 40975 ft | 571 kts | 71° |
| 2026-04-29 04:02 | 40.33304 | -82.43490 | 40974 ft | 569 kts | 70° |
| 2026-04-29 04:02 | 40.35583 | -82.33669 | 40968 ft | 568 kts | 71° |
| 2026-04-29 04:03 | 40.37868 | -82.23780 | 40968 ft | 568 kts | 71° |
| 2026-04-29 04:03 | 40.40149 | -82.13868 | 40969 ft | 567 kts | 71° |
| 2026-04-29 04:04 | 40.42426 | -82.03925 | 40983 ft | 566 kts | 71° |
| 2026-04-29 04:04 | 40.44693 | -81.93989 | 40967 ft | 565 kts | 71° |
| 2026-04-29 04:05 | 40.46927 | -81.84150 | 40979 ft | 565 kts | 70° |
| 2026-04-29 04:05 | 40.49152 | -81.74307 | 40982 ft | 563 kts | 70° |
| 2026-04-29 04:06 | 40.51389 | -81.64372 | 40985 ft | 562 kts | 71° |
| 2026-04-29 04:06 | 40.53595 | -81.54526 | 40983 ft | 561 kts | 70° |
| 2026-04-29 04:07 | 40.55774 | -81.44756 | 41006 ft | 560 kts | 70° |
| 2026-04-29 04:07 | 40.57949 | -81.34963 | 40999 ft | 560 kts | 71° |
| 2026-04-29 04:08 | 40.60113 | -81.25176 | 40990 ft | 558 kts | 70° |
| 2026-04-29 04:08 | 40.62265 | -81.15395 | 40992 ft | 558 kts | 71° |
| 2026-04-29 04:09 | 40.64434 | -81.05498 | 40993 ft | 558 kts | 71° |
| 2026-04-29 04:09 | 40.66571 | -80.95702 | 40996 ft | 557 kts | 70° |
| 2026-04-29 04:10 | 40.68689 | -80.85943 | 40990 ft | 556 kts | 71° |
| 2026-04-29 04:10 | 40.70805 | -80.76156 | 40986 ft | 555 kts | 71° |
| 2026-04-29 04:11 | 40.72919 | -80.66334 | 40997 ft | 554 kts | 71° |
| 2026-04-29 04:11 | 40.75011 | -80.56564 | 41002 ft | 554 kts | 71° |
| 2026-04-29 04:12 | 40.77095 | -80.46790 | 41015 ft | 553 kts | 71° |
| 2026-04-29 04:12 | 40.79170 | -80.37012 | 41011 ft | 553 kts | 70° |
| 2026-04-29 04:13 | 40.81214 | -80.27337 | 41006 ft | 551 kts | 71° |
| 2026-04-29 04:13 | 40.82688 | -80.17398 | 41007 ft | 555 kts | 84° |
| 2026-04-29 04:14 | 40.83202 | -80.07283 | 41000 ft | 556 kts | 85° |
| 2026-04-29 04:14 | 40.83706 | -79.97112 | 40982 ft | 556 kts | 85° |
| 2026-04-29 04:15 | 40.84202 | -79.86885 | 40992 ft | 556 kts | 85° |
| 2026-04-29 04:15 | 40.84687 | -79.76695 | 40983 ft | 556 kts | 85° |
| 2026-04-29 04:16 | 40.85160 | -79.66573 | 40986 ft | 556 kts | 85° |
| 2026-04-29 04:16 | 40.85627 | -79.56349 | 40977 ft | 556 kts | 85° |
| 2026-04-29 04:17 | 40.86084 | -79.46170 | 40986 ft | 556 kts | 85° |
| 2026-04-29 04:17 | 40.86530 | -79.36009 | 40981 ft | 555 kts | 85° |
| 2026-04-29 04:18 | 40.86966 | -79.25866 | 40986 ft | 554 kts | 85° |
| 2026-04-29 04:18 | 40.87396 | -79.15656 | 40986 ft | 554 kts | 86° |
| 2026-04-29 04:19 | 40.87814 | -79.05537 | 40988 ft | 555 kts | 85° |
| 2026-04-29 04:19 | 40.88227 | -78.95297 | 40981 ft | 556 kts | 86° |
| 2026-04-29 04:20 | 40.88629 | -78.85087 | 40997 ft | 555 kts | 86° |
| 2026-04-29 04:20 | 40.89022 | -78.74892 | 40977 ft | 555 kts | 86° |
| 2026-04-29 04:21 | 40.89400 | -78.64847 | 41002 ft | 554 kts | 85° |
| 2026-04-29 04:21 | 40.89772 | -78.54747 | 41015 ft | 553 kts | 85° |
| 2026-04-29 04:22 | 40.90134 | -78.44638 | 41011 ft | 551 kts | 85° |
| 2026-04-29 04:22 | 40.90486 | -78.34583 | 41009 ft | 546 kts | 85° |
| 2026-04-29 04:23 | 40.90803 | -78.25255 | 40999 ft | 543 kts | 86° |
| 2026-04-29 04:23 | 40.91136 | -78.15281 | 41001 ft | 542 kts | 85° |
| 2026-04-29 04:24 | 40.91460 | -78.05331 | 41017 ft | 542 kts | 85° |
| 2026-04-29 04:24 | 40.92254 | -77.95467 | 41024 ft | 536 kts | 74° |
| 2026-04-29 04:25 | 40.93824 | -77.86004 | 41036 ft | 535 kts | 73° |
| 2026-04-29 04:25 | 40.95406 | -77.76380 | 41030 ft | 535 kts | 73° |
| 2026-04-29 04:26 | 40.96990 | -77.66688 | 41013 ft | 534 kts | 73° |
| 2026-04-29 04:26 | 40.98544 | -77.57121 | 41009 ft | 534 kts | 75° |
| 2026-04-29 04:27 | 41.00081 | -77.47597 | 41006 ft | 534 kts | 73° |
| 2026-04-29 04:27 | 41.01620 | -77.38007 | 41027 ft | 533 kts | 73° |
| 2026-04-29 04:28 | 41.03064 | -77.28951 | 41005 ft | 533 kts | 75° |
| 2026-04-29 04:28 | 41.03872 | -77.23868 | 40652 ft | 538 kts | 75° |
| 2026-04-29 04:28 | 41.04612 | -77.19205 | 39986 ft | 538 kts | 75° |
| 2026-04-29 04:29 | 41.05249 | -77.15170 | 39423 ft | 536 kts | 74° |
| 2026-04-29 04:29 | 41.06746 | -77.05669 | 38037 ft | 536 kts | 73° |
| 2026-04-29 04:29 | 41.07507 | -77.00796 | 37375 ft | 536 kts | 72° |
| 2026-04-29 04:30 | 41.08244 | -76.96072 | 36633 ft | 537 kts | 72° |
| 2026-04-29 04:30 | 41.08964 | -76.91441 | 35996 ft | 537 kts | 72° |
| 2026-04-29 04:30 | 41.10434 | -76.81995 | 34592 ft | 546 kts | 71° |
| 2026-04-29 04:31 | 41.11192 | -76.77090 | 33850 ft | 549 kts | 71° |
| 2026-04-29 04:31 | 41.11968 | -76.72047 | 33120 ft | 551 kts | 72° |
| 2026-04-29 04:31 | 41.12732 | -76.67064 | 32364 ft | 552 kts | 72° |
| 2026-04-29 04:31 | 41.13484 | -76.62133 | 31670 ft | 549 kts | 72° |
| 2026-04-29 04:32 | 41.14234 | -76.57203 | 30921 ft | 545 kts | 73° |
| 2026-04-29 04:32 | 41.14983 | -76.52261 | 30210 ft | 542 kts | 73° |
| 2026-04-29 04:32 | 41.15724 | -76.47367 | 29497 ft | 537 kts | 73° |
| 2026-04-29 04:32 | 41.16451 | -76.42540 | 28772 ft | 531 kts | 73° |
| 2026-04-29 04:33 | 41.17171 | -76.37745 | 28085 ft | 521 kts | 74° |
| 2026-04-29 04:33 | 41.17874 | -76.33057 | 27405 ft | 512 kts | 75° |
| 2026-04-29 04:33 | 41.18570 | -76.28402 | 26711 ft | 503 kts | 75° |
| 2026-04-29 04:33 | 41.19247 | -76.23855 | 26071 ft | 493 kts | 76° |
| 2026-04-29 04:34 | 41.19907 | -76.19416 | 25398 ft | 484 kts | 76° |
| 2026-04-29 04:34 | 41.20548 | -76.15100 | 24772 ft | 475 kts | 77° |
| 2026-04-29 04:34 | 41.21107 | -76.11320 | 24224 ft | 467 kts | 77° |
| 2026-04-29 04:34 | 41.21733 | -76.07082 | 23612 ft | 457 kts | 77° |
| 2026-04-29 04:35 | 41.22351 | -76.02883 | 22983 ft | 448 kts | 77° |
| 2026-04-29 04:35 | 41.22937 | -75.98910 | 22427 ft | 440 kts | 77° |
| 2026-04-29 04:35 | 41.23504 | -75.95064 | 21853 ft | 438 kts | 77° |
| 2026-04-29 04:35 | 41.24088 | -75.91078 | 21269 ft | 434 kts | 77° |
| 2026-04-29 04:36 | 41.24672 | -75.87072 | 20687 ft | 430 kts | 77° |
| 2026-04-29 04:36 | 41.25247 | -75.83114 | 20115 ft | 425 kts | 77° |
| 2026-04-29 04:36 | 41.25811 | -75.79234 | 19549 ft | 421 kts | 78° |
| 2026-04-29 04:36 | 41.26349 | -75.75513 | 19021 ft | 417 kts | 77° |
| 2026-04-29 04:37 | 41.26805 | -75.71729 | 18476 ft | 414 kts | 84° |
| 2026-04-29 04:37 | 41.26617 | -75.67908 | 18150 ft | 411 kts | 101° |
| 2026-04-29 04:37 | 41.25705 | -75.64208 | 18049 ft | 411 kts | 113° |
| 2026-04-29 04:37 | 41.24532 | -75.60693 | 18068 ft | 406 kts | 114° |
| 2026-04-29 04:38 | 41.23400 | -75.57307 | 17534 ft | 398 kts | 113° |
| 2026-04-29 04:38 | 41.22263 | -75.53906 | 16593 ft | 401 kts | 113° |
| 2026-04-29 04:38 | 41.21122 | -75.50497 | 15748 ft | 401 kts | 113° |
| 2026-04-29 04:38 | 41.19974 | -75.47073 | 15129 ft | 393 kts | 112° |
| 2026-04-29 04:39 | 41.18858 | -75.43748 | 14558 ft | 385 kts | 112° |
| 2026-04-29 04:39 | 41.17776 | -75.40530 | 14062 ft | 376 kts | 112° |
| 2026-04-29 04:39 | 41.16695 | -75.37317 | 13658 ft | 363 kts | 112° |
| 2026-04-29 04:39 | 41.15676 | -75.34294 | 13033 ft | 351 kts | 113° |
| 2026-04-29 04:40 | 41.14674 | -75.31326 | 12413 ft | 340 kts | 112° |
| 2026-04-29 04:40 | 41.13825 | -75.28810 | 11943 ft | 330 kts | 113° |
| 2026-04-29 04:40 | 41.12893 | -75.26051 | 11383 ft | 321 kts | 112° |
| 2026-04-29 04:40 | 41.11975 | -75.23340 | 10962 ft | 308 kts | 112° |
| 2026-04-29 04:41 | 41.11094 | -75.20737 | 10524 ft | 298 kts | 112° |
| 2026-04-29 04:41 | 41.10252 | -75.18250 | 10053 ft | 291 kts | 112° |
| 2026-04-29 04:41 | 41.09410 | -75.15768 | 9507 ft | 287 kts | 112° |
| 2026-04-29 04:41 | 41.08587 | -75.13341 | 8922 ft | 285 kts | 113° |
| 2026-04-29 04:42 | 41.07779 | -75.10960 | 8382 ft | 281 kts | 113° |
| 2026-04-29 04:42 | 41.06960 | -75.08549 | 7891 ft | 283 kts | 113° |
| 2026-04-29 04:42 | 41.06144 | -75.06149 | 7487 ft | 280 kts | 113° |
| 2026-04-29 04:42 | 41.05337 | -75.03779 | 7080 ft | 278 kts | 113° |
| 2026-04-29 04:43 | 41.04535 | -75.01424 | 6688 ft | 275 kts | 114° |
| 2026-04-29 04:43 | 41.03750 | -74.99120 | 6309 ft | 273 kts | 114° |
| 2026-04-29 04:43 | 41.02966 | -74.96823 | 6001 ft | 269 kts | 115° |
| 2026-04-29 04:43 | 41.02135 | -74.94589 | 5950 ft | 269 kts | 123° |
| 2026-04-29 04:44 | 41.01025 | -74.92532 | 5947 ft | 269 kts | 128° |
| 2026-04-29 04:44 | 40.99874 | -74.90514 | 5960 ft | 270 kts | 127° |
| 2026-04-29 04:44 | 40.98730 | -74.88514 | 5961 ft | 270 kts | 128° |
| 2026-04-29 04:44 | 40.97591 | -74.86523 | 5954 ft | 269 kts | 127° |
| 2026-04-29 04:45 | 40.96444 | -74.84532 | 5953 ft | 268 kts | 128° |
| 2026-04-29 04:45 | 40.95284 | -74.82503 | 5968 ft | 270 kts | 128° |
| 2026-04-29 04:45 | 40.94138 | -74.80501 | 5961 ft | 271 kts | 128° |
| 2026-04-29 04:45 | 40.92979 | -74.78509 | 5958 ft | 270 kts | 127° |
| 2026-04-29 04:46 | 40.91824 | -74.76495 | 5952 ft | 270 kts | 127° |
| 2026-04-29 04:46 | 40.90673 | -74.74500 | 5958 ft | 268 kts | 127° |
| 2026-04-29 04:46 | 40.89533 | -74.72511 | 5908 ft | 270 kts | 127° |
| 2026-04-29 04:46 | 40.88397 | -74.70506 | 5649 ft | 269 kts | 128° |
| 2026-04-29 04:47 | 40.87257 | -74.68497 | 5377 ft | 267 kts | 128° |
| 2026-04-29 04:47 | 40.86151 | -74.66519 | 5119 ft | 264 kts | 127° |
| 2026-04-29 04:47 | 40.85038 | -74.64528 | 4856 ft | 261 kts | 128° |
| 2026-04-29 04:47 | 40.84046 | -74.62752 | 4628 ft | 259 kts | 128° |
| 2026-04-29 04:48 | 40.82976 | -74.60817 | 4390 ft | 258 kts | 128° |
| 2026-04-29 04:48 | 40.81902 | -74.58865 | 4135 ft | 256 kts | 127° |
| 2026-04-29 04:48 | 40.80835 | -74.56920 | 3879 ft | 254 kts | 127° |
| 2026-04-29 04:48 | 40.79792 | -74.55028 | 3628 ft | 252 kts | 127° |
| 2026-04-29 04:49 | 40.78888 | -74.53378 | 3427 ft | 250 kts | 127° |
| 2026-04-29 04:49 | 40.77860 | -74.51491 | 3227 ft | 249 kts | 127° |
| 2026-04-29 04:49 | 40.76829 | -74.49600 | 3088 ft | 248 kts | 128° |
| 2026-04-29 04:49 | 40.75823 | -74.47760 | 2965 ft | 244 kts | 127° |
| 2026-04-29 04:50 | 40.74842 | -74.45978 | 2868 ft | 229 kts | 127° |
| 2026-04-29 04:50 | 40.73930 | -74.44303 | 2767 ft | 216 kts | 127° |
| 2026-04-29 04:50 | 40.73281 | -74.42535 | 2667 ft | 205 kts | 109° |
| 2026-04-29 04:50 | 40.72887 | -74.40710 | 2555 ft | 207 kts | 107° |
| 2026-04-29 04:51 | 40.72504 | -74.38865 | 2425 ft | 207 kts | 107° |
| 2026-04-29 04:51 | 40.72116 | -74.36996 | 2299 ft | 206 kts | 107° |
| 2026-04-29 04:51 | 40.71767 | -74.35336 | 2154 ft | 206 kts | 107° |
| 2026-04-29 04:51 | 40.71372 | -74.33472 | 1987 ft | 204 kts | 108° |
| 2026-04-29 04:52 | 40.71046 | -74.31919 | 1969 ft | 203 kts | 108° |
| 2026-04-29 04:52 | 40.70847 | -74.30055 | 1973 ft | 207 kts | 86° |
| 2026-04-29 04:52 | 40.71146 | -74.28207 | 1979 ft | 207 kts | 78° |
| 2026-04-29 04:52 | 40.71527 | -74.26427 | 2002 ft | 188 kts | 69° |
| 2026-04-29 04:53 | 40.72297 | -74.25092 | 2002 ft | 184 kts | 48° |
| 2026-04-29 04:53 | 40.73153 | -74.23869 | 1996 ft | 181 kts | 49° |
| 2026-04-29 04:53 | 40.73986 | -74.22660 | 1987 ft | 180 kts | 49° |
| 2026-04-29 04:53 | 40.74840 | -74.21416 | 1979 ft | 180 kts | 49° |
| 2026-04-29 04:54 | 40.75656 | -74.20228 | 1922 ft | 176 kts | 50° |
| 2026-04-29 04:54 | 40.76479 | -74.19028 | 1667 ft | 177 kts | 49° |
| 2026-04-29 04:54 | 40.77308 | -74.17818 | 1466 ft | 177 kts | 50° |
| 2026-04-29 04:54 | 40.78073 | -74.16704 | 1289 ft | 151 kts | 50° |
| 2026-04-29 04:55 | 40.78758 | -74.15713 | 1307 ft | 140 kts | 50° |
| 2026-04-29 04:55 | 40.79394 | -74.14787 | 1290 ft | 136 kts | 50° |
| 2026-04-29 04:55 | 40.80012 | -74.13879 | 1263 ft | 133 kts | 50° |
| 2026-04-29 04:55 | 40.80621 | -74.12981 | 1235 ft | 134 kts | 51° |
| 2026-04-29 04:56 | 40.81238 | -74.12065 | 1028 ft | 132 kts | 51° |
| 2026-04-29 04:56 | 40.81856 | -74.11168 | 872 ft | 130 kts | 50° |
| 2026-04-29 04:56 | 40.82468 | -74.10280 | 724 ft | 131 kts | 50° |
| 2026-04-29 04:56 | 40.83070 | -74.09401 | 600 ft | 128 kts | 50° |
| 2026-04-29 04:57 | 40.83677 | -74.08514 | 452 ft | 131 kts | 51° |
| 2026-04-29 04:57 | 40.84291 | -74.07610 | 225 ft | 130 kts | 51° |
| 2026-04-29 04:57 | 40.84868 | -74.06749 | 19 ft | 120 kts | 51° |
| 2026-04-29 04:57 | 40.85346 | -74.06037 | 15 ft | 82 kts | 49° |
| 2026-04-29 04:58 | 40.85548 | -74.05733 | 14 ft | 16 kts | 67° |
| 2026-04-29 04:58 | 40.85532 | -74.05592 | 14 ft | 10 kts | 156° |
| 2026-04-29 04:58 | 40.85463 | -74.05653 | 14 ft | 14 kts | 229° |
| 2026-04-29 04:58 | 40.85382 | -74.05765 | 14 ft | 18 kts | 225° |
| 2026-04-29 04:59 | 40.85288 | -74.05907 | 14 ft | 22 kts | 229° |
| 2026-04-29 04:59 | 40.85181 | -74.06062 | 14 ft | 15 kts | 219° |
| 2026-04-29 04:59 | 40.85077 | -74.06093 | 14 ft | 18 kts | 182° |
| 2026-04-29 04:59 | 40.84935 | -74.06104 | 14 ft | 21 kts | 182° |
| 2026-04-29 05:00 | 40.84769 | -74.06116 | 14 ft | 24 kts | 183° |
| 2026-04-29 05:00 | 40.84589 | -74.06130 | 14 ft | 27 kts | 183° |
| 2026-04-29 05:00 | 40.84411 | -74.06143 | 14 ft | 23 kts | 182° |
| 2026-04-29 05:00 | 40.84277 | -74.06153 | 14 ft | 15 kts | 183° |
| 2026-04-29 05:01 | 40.84239 | -74.06220 | 14 ft | 13 kts | 272° |
| 2026-04-29 05:01 | 40.84243 | -74.06322 | 14 ft | 6 kts | 272° |
| 2026-04-29 05:01 | 40.84248 | -74.06408 | 14 ft | 11 kts | 271° |
| 2026-04-29 05:01 | 40.84215 | -74.06477 | 14 ft | 11 kts | 205° |
| 2026-04-29 05:02 | 40.84157 | -74.06509 | 14 ft | 4 kts | 135° |
| 2026-04-29 05:02 | 40.84156 | -74.06460 | 14 ft | 6 kts | 110° |
| 2026-04-29 05:02 | 40.84158 | -74.06442 | 14 ft | 1 kts | 346° |
| 2026-04-29 05:02 | 40.84157 | -74.06456 | 14 ft | 2 kts | 207° |
| 2026-04-29 05:03 | 40.84153 | -74.06467 | 14 ft | 0 kts | 291° |
| 2026-04-29 05:03 | 40.84153 | -74.06468 | 14 ft | 0 kts | 295° |
| 2026-04-29 05:03 | 40.84154 | -74.06470 | 14 ft | 0 kts | 297° |
| 2026-04-29 05:04 | 40.84156 | -74.06477 | 14 ft | 2 kts | 295° |